Time;durP1;ratioP1;P1;durP2;ratioP2;P2;SDS_P1;SDS_P2;PMS_P1;PMS_P2;Temp;Humidity;BMP_temperature;BMP_pressure;BME280_temperature;BME280_humidity;BME280_pressure;Samples;Min_cycle;Max_cycle;Signal;HPM_P1;HPM_P2
2023/12/26 00:01:45;;;;;;;0.00;0.00;;;;;;;10.41;100.00;99513.69;5014726;28;20631;-78
2023/12/26 00:04:15;;;;;;;0.20;0.10;;;;;;;10.41;100.00;99508.34;5014770;28;20695;-78
2023/12/26 00:06:52;;;;;;;0.07;0.00;;;;;;;10.48;100.00;99503.41;5014743;28;20493;-79
2023/12/26 00:09:18;;;;;;;0.00;0.00;;;;;;;10.48;100.00;99504.25;5015301;28;20570;-77
2023/12/26 00:11:47;;;;;;;0.10;0.00;;;;;;;10.51;100.00;99501.34;5015046;28;20660;-80
2023/12/26 00:14:22;;;;;;;0.20;0.10;;;;;;;10.50;100.00;99496.13;5014814;28;20660;-79
2023/12/26 00:16:50;;;;;;;0.10;0.10;;;;;;;10.51;100.00;99490.69;5014232;28;20211;-78
2023/12/26 00:19:17;;;;;;;0.00;0.00;;;;;;;10.53;100.00;99499.41;5014390;28;20296;-79
2023/12/26 00:21:44;;;;;;;0.00;0.00;;;;;;;10.54;100.00;99477.13;5013995;28;20502;-78
2023/12/26 00:24:10;;;;;;;0.10;0.00;;;;;;;10.58;100.00;99488.34;5015172;28;20295;-78
2023/12/26 00:26:38;;;;;;;0.00;0.00;;;;;;;10.58;100.00;99486.53;5014480;28;20212;-77
2023/12/26 00:29:05;;;;;;;0.00;0.00;;;;;;;10.58;100.00;99477.69;5014066;28;20215;-78
2023/12/26 00:31:32;;;;;;;0.00;0.00;;;;;;;10.58;100.00;99473.22;5013963;28;20239;-78
2023/12/26 00:34:00;;;;;;;0.00;0.00;;;;;;;10.61;100.00;99478.31;5014442;28;20602;-80
2023/12/26 00:36:29;;;;;;;0.00;0.00;;;;;;;10.59;100.00;99484.72;5013529;28;20299;-78
2023/12/26 00:38:55;;;;;;;0.00;0.00;;;;;;;10.62;100.00;99479.16;5013251;28;20760;-77
2023/12/26 00:41:22;;;;;;;0.00;0.00;;;;;;;10.63;100.00;99464.88;5013284;28;20216;-78
2023/12/26 00:43:48;;;;;;;0.00;0.00;;;;;;;10.65;100.00;99468.25;5013084;28;20309;-79
2023/12/26 00:46:15;;;;;;;0.10;0.10;;;;;;;10.66;100.00;99457.47;5013581;28;20236;-78
2023/12/26 00:48:41;;;;;;;0.10;0.03;;;;;;;10.67;100.00;99453.84;5012802;28;20243;-80
2023/12/26 00:51:09;;;;;;;0.00;0.00;;;;;;;10.68;100.00;99457.34;5012777;28;20218;-79
2023/12/26 00:53:36;;;;;;;0.00;0.00;;;;;;;10.70;100.00;99450.09;5013371;28;20326;-77
2023/12/26 00:56:03;;;;;;;0.20;0.10;;;;;;;10.70;100.00;99445.59;5013220;28;20212;-79
2023/12/26 00:58:30;;;;;;;0.10;0.07;;;;;;;10.71;100.00;99462.44;5013520;28;20733;-78
2023/12/26 01:00:56;;;;;;;0.03;0.03;;;;;;;10.72;100.00;99445.47;5012190;28;20226;-77
2023/12/26 01:03:23;;;;;;;0.07;0.07;;;;;;;10.74;100.00;99457.69;5012262;28;20694;-79
2023/12/26 01:05:50;;;;;;;0.10;0.10;;;;;;;10.75;100.00;99446.03;5012835;28;20634;-78
2023/12/26 01:08:19;;;;;;;0.10;0.10;;;;;;;10.75;100.00;99469.16;5013342;28;20698;-79
2023/12/26 01:10:45;;;;;;;0.13;0.10;;;;;;;10.79;100.00;99454.63;5013386;28;20291;-77
2023/12/26 01:13:12;;;;;;;0.20;0.10;;;;;;;10.79;100.00;99449.31;5012619;28;20247;-78
2023/12/26 01:15:39;;;;;;;0.13;0.10;;;;;;;10.78;100.00;99452.94;5012629;28;20207;-80
2023/12/26 01:18:07;;;;;;;0.10;0.00;;;;;;;10.76;100.00;99469.03;5012774;28;20300;-79
2023/12/26 01:20:34;;;;;;;0.00;0.00;;;;;;;10.79;100.00;99460.81;5012342;28;20234;-78
2023/12/26 01:23:00;;;;;;;0.17;0.10;;;;;;;10.80;100.00;99464.31;5012774;28;20719;-79
2023/12/26 01:25:28;;;;;;;0.00;0.00;;;;;;;10.82;100.00;99459.72;5012711;28;20224;-79
2023/12/26 01:27:55;;;;;;;0.50;0.10;;;;;;;10.79;100.00;99446.66;5012870;28;20213;-78
2023/12/26 01:30:21;;;;;;;1.03;0.10;;;;;;;10.81;100.00;99455.34;5012922;28;20316;-79
2023/12/26 01:32:48;;;;;;;0.00;0.00;;;;;;;10.80;100.00;99464.31;5012997;28;20314;-78
2023/12/26 01:35:15;;;;;;;0.00;0.00;;;;;;;10.82;100.00;99458.88;5012598;28;20208;-78
2023/12/26 01:37:45;;;;;;;0.03;0.00;;;;;;;10.81;100.00;99458.03;5012951;28;20316;-78
2023/12/26 01:40:12;;;;;;;0.60;0.00;;;;;;;10.82;100.00;99473.03;5012476;28;20233;-78
2023/12/26 01:42:41;;;;;;;0.00;0.00;;;;;;;10.85;100.00;99455.94;5012360;28;20595;-78
2023/12/26 01:45:08;;;;;;;0.10;0.10;;;;;;;10.83;100.00;99450.75;5012188;28;20299;-78
2023/12/26 01:47:34;;;;;;;0.00;0.00;;;;;;;10.81;100.00;99462.50;5012335;28;20206;-79
2023/12/26 01:50:01;;;;;;;0.07;0.07;;;;;;;10.80;100.00;99466.97;5013012;28;20350;-78
2023/12/26 01:52:28;;;;;;;0.10;0.10;;;;;;;10.81;100.00;99463.34;5012228;28;20298;-79
2023/12/26 01:54:55;;;;;;;0.20;0.00;;;;;;;10.81;100.00;99463.34;5012529;28;20638;-79
2023/12/26 01:57:21;;;;;;;0.00;0.00;;;;;;;10.82;100.00;99451.72;5012328;28;20735;-78
2023/12/26 01:59:49;;;;;;;0.00;0.00;;;;;;;10.83;100.00;99461.41;5012050;28;20678;-79
2023/12/26 02:02:18;;;;;;;0.10;0.00;;;;;;;10.82;100.00;99465.03;5011495;28;20225;-80
2023/12/26 02:04:45;;;;;;;0.17;0.00;;;;;;;10.81;100.00;99471.34;5011514;28;20240;-81
2023/12/26 02:07:12;;;;;;;0.00;0.00;;;;;;;10.82;100.00;99467.69;5014005;28;20688;-77
2023/12/26 02:09:41;;;;;;;0.00;0.00;;;;;;;10.81;100.00;99459.84;5015880;28;20227;-79
2023/12/26 02:12:08;;;;;;;0.00;0.00;;;;;;;10.75;100.00;99462.03;5016212;28;20224;-78
2023/12/26 02:14:35;;;;;;;0.00;0.00;;;;;;;10.78;100.00;99460.94;5016625;28;20755;-79
2023/12/26 02:17:08;;;;;;;0.30;0.00;;;;;;;10.78;100.00;99463.59;5016140;28;20684;-79
2023/12/26 02:19:41;;;;;;;0.10;0.00;;;;;;;10.76;100.00;99477.03;5015612;28;20306;-79
2023/12/26 02:22:07;;;;;;;0.00;0.00;;;;;;;10.75;100.00;99463.84;5015504;28;20232;-79
2023/12/26 02:24:35;;;;;;;0.47;0.00;;;;;;;10.76;100.00;99461.06;5015516;28;20208;-80
2023/12/26 02:27:03;;;;;;;0.00;0.00;;;;;;;10.74;100.00;99463.03;5015704;28;20638;-79
2023/12/26 02:29:31;;;;;;;0.03;0.00;;;;;;;10.76;100.00;99465.53;5015754;28;20318;-77
2023/12/26 02:32:01;;;;;;;0.17;0.00;;;;;;;10.76;100.00;99465.53;5015433;28;20223;-79
2023/12/26 02:34:28;;;;;;;0.00;0.00;;;;;;;10.77;100.00;99473.41;5015823;28;20403;-78
2023/12/26 02:36:55;;;;;;;0.00;0.00;;;;;;;10.78;100.00;99475.09;5015678;28;20233;-78
2023/12/26 02:39:21;;;;;;;0.10;0.10;;;;;;;10.78;100.00;99479.56;5015698;28;20296;-78
2023/12/26 02:41:50;;;;;;;0.57;0.10;;;;;;;10.77;100.00;99475.22;5015431;28;20207;-81
2023/12/26 02:44:16;;;;;;;0.57;0.00;;;;;;;10.80;100.00;99472.31;5015341;28;20672;-79
2023/12/26 02:46:43;;;;;;;1.23;0.10;;;;;;;10.79;100.00;99466.13;5014915;28;20208;-77
2023/12/26 02:49:09;;;;;;;0.20;0.10;;;;;;;10.80;100.00;99461.66;5015753;28;20662;-79
2023/12/26 02:51:36;;;;;;;0.10;0.10;;;;;;;10.81;100.00;99471.34;5015164;28;20208;-77
2023/12/26 02:54:03;;;;;;;0.10;0.10;;;;;;;10.79;100.00;99474.13;5015805;28;20217;-78
2023/12/26 02:56:29;;;;;;;0.10;0.10;;;;;;;10.81;100.00;99465.16;5015207;28;20267;-80
2023/12/26 02:58:57;;;;;;;0.10;0.10;;;;;;;10.83;100.00;99463.22;5014407;28;20878;-81
2023/12/26 03:01:24;;;;;;;0.20;0.20;;;;;;;10.84;100.00;99489.72;5015066;28;20229;-80
2023/12/26 03:03:50;;;;;;;0.33;0.10;;;;;;;10.84;100.00;99481.75;5014832;28;20245;-78
2023/12/26 03:06:17;;;;;;;0.30;0.20;;;;;;;10.84;100.00;99486.22;5014651;28;20207;-78
2023/12/26 03:08:43;;;;;;;1.00;0.40;;;;;;;10.83;100.00;99506.69;5014552;28;20206;-79
2023/12/26 03:11:10;;;;;;;0.50;0.20;;;;;;;10.83;100.00;99487.19;5014796;28;20229;-79
2023/12/26 03:13:36;;;;;;;0.30;0.13;;;;;;;10.81;100.00;99495.31;5014915;28;20319;-80
2023/12/26 03:16:05;;;;;;;0.10;0.10;;;;;;;10.81;100.00;99505.13;5015053;28;20238;-79
2023/12/26 03:18:32;;;;;;;0.10;0.10;;;;;;;10.82;100.00;99505.00;5014412;28;20304;-78
2023/12/26 03:20:58;;;;;;;0.07;0.07;;;;;;;10.81;100.00;99494.47;5014790;28;20236;-80
2023/12/26 03:23:25;;;;;;;0.00;0.00;;;;;;;10.77;100.00;99499.19;5015106;28;20226;-80
2023/12/26 03:25:51;;;;;;;0.10;0.10;;;;;;;10.74;100.00;99488.81;5014001;28;20207;-78
2023/12/26 03:28:18;;;;;;;0.10;0.10;;;;;;;10.72;100.00;99493.41;5014198;28;20216;-78
2023/12/26 03:30:44;;;;;;;0.47;0.20;;;;;;;10.70;100.00;99488.22;5015111;28;20320;-79
2023/12/26 03:33:12;;;;;;;0.60;0.30;;;;;;;10.70;100.00;99493.53;5014808;28;20318;-78
2023/12/26 03:35:39;;;;;;;0.27;0.20;;;;;;;10.71;100.00;99503.22;5015521;28;20282;-79
2023/12/26 03:38:06;;;;;;;0.43;0.43;;;;;;;10.70;100.00;99487.38;5014716;28;20207;-79
2023/12/26 03:40:32;;;;;;;0.30;0.30;;;;;;;10.67;100.00;99491.13;5014523;28;20233;-79
2023/12/26 03:42:59;;;;;;;0.57;0.40;;;;;;;10.69;100.00;99499.00;4996125;28;20233;-82
2023/12/26 03:45:27;;;;;;;0.40;0.40;;;;;;;10.66;100.00;99497.41;4994223;28;20227;-80
2023/12/26 03:47:53;;;;;;;0.27;0.20;;;;;;;10.63;100.00;99476.38;4994030;28;20243;-81
2023/12/26 03:50:22;;;;;;;0.43;0.30;;;;;;;10.59;100.00;99490.88;4994041;28;20240;-80
2023/12/26 03:52:49;;;;;;;0.30;0.30;;;;;;;10.56;100.00;99495.66;4994582;28;20314;-80
2023/12/26 03:55:16;;;;;;;0.93;0.37;;;;;;;10.53;100.00;99510.03;4994632;28;20691;-79
2023/12/26 03:57:43;;;;;;;0.30;0.20;;;;;;;10.54;100.00;99500.25;4994996;28;20247;-80
2023/12/26 04:00:10;;;;;;;1.33;0.50;;;;;;;10.56;100.00;99511.63;4994208;28;20223;-78
2023/12/26 04:02:37;;;;;;;0.60;0.23;;;;;;;10.51;100.00;99504.00;4994706;28;20231;-79
2023/12/26 04:05:04;;;;;;;0.77;0.37;;;;;;;10.50;100.00;99498.78;4993665;28;20201;-79
2023/12/26 04:07:32;;;;;;;0.40;0.40;;;;;;;10.49;100.00;99502.44;4993098;28;20205;-80
2023/12/26 04:09:59;;;;;;;0.67;0.40;;;;;;;10.48;100.00;99508.72;4993084;28;20210;-81
2023/12/26 04:12:25;;;;;;;0.77;0.60;;;;;;;10.47;100.00;99504.38;4993002;28;20236;-80
2023/12/26 04:14:52;;;;;;;0.20;0.20;;;;;;;10.46;100.00;99515.97;4993806;28;20212;-79
2023/12/26 04:17:19;;;;;;;0.40;0.23;;;;;;;10.44;100.00;99508.13;4993268;28;20258;-81
2023/12/26 04:19:46;;;;;;;0.97;0.50;;;;;;;10.44;100.00;99516.09;4993529;28;20222;-81
2023/12/26 04:22:12;;;;;;;0.73;0.30;;;;;;;10.46;100.00;99513.31;4993243;28;20232;-78
2023/12/26 04:24:40;;;;;;;0.33;0.23;;;;;;;10.47;100.00;99513.19;4993800;28;20210;-79
2023/12/26 04:27:08;;;;;;;0.30;0.30;;;;;;;10.49;100.00;99519.25;4993226;28;20299;-79
2023/12/26 04:29:34;;;;;;;0.37;0.30;;;;;;;10.51;100.00;99524.44;4991980;28;20239;-79
2023/12/26 04:32:01;;;;;;;0.57;0.30;;;;;;;10.52;100.00;99531.47;4992219;28;20228;-80
2023/12/26 04:34:27;;;;;;;0.30;0.20;;;;;;;10.51;100.00;99538.59;4993323;28;20253;-80
2023/12/26 04:36:54;;;;;;;0.87;0.30;;;;;;;10.50;100.00;99592.81;4993888;28;20362;-80
2023/12/26 04:39:20;;;;;;;0.40;0.20;;;;;;;10.43;100.00;99600.44;4993518;28;20578;-80
2023/12/26 04:41:49;;;;;;;0.47;0.10;;;;;;;10.24;100.00;99612.66;4993313;28;20231;-81
2023/12/26 04:44:15;;;;;;;0.63;0.20;;;;;;;10.06;100.00;99596.28;4993143;28;20743;-80
2023/12/26 04:46:42;;;;;;;2.13;0.23;;;;;;;9.93;100.00;99601.72;4993786;28;20752;-81
2023/12/26 04:49:09;;;;;;;0.87;0.20;;;;;;;9.77;100.00;99595.03;4994697;28;20695;-83
2023/12/26 04:51:35;;;;;;;2.60;0.60;;;;;;;9.66;100.00;99606.50;5004715;28;20287;-86
2023/12/26 04:54:02;;;;;;;1.03;0.20;;;;;;;9.52;100.00;99609.31;5009706;28;20236;-82
2023/12/26 04:56:29;;;;;;;1.20;0.10;;;;;;;9.41;100.00;99610.16;5013734;28;20206;-83
2023/12/26 04:58:57;;;;;;;1.40;0.30;;;;;;;9.33;100.00;99610.72;5013087;28;20289;-83
2023/12/26 05:01:23;;;;;;;2.20;0.40;;;;;;;9.24;100.00;99611.41;5012875;28;20786;-82
2023/12/26 05:03:50;;;;;;;1.40;0.30;;;;;;;9.20;100.00;99625.03;5012985;28;20230;-83
2023/12/26 05:06:19;;;;;;;1.70;0.40;;;;;;;9.14;100.00;99620.16;5012408;28;20210;-81
2023/12/26 05:08:46;;;;;;;0.40;0.20;;;;;;;9.10;100.00;99626.69;5011803;28;20221;-82
2023/12/26 05:11:22;;;;;;;0.77;0.30;;;;;;;9.09;100.00;99630.28;5011505;28;20207;-82
2023/12/26 05:13:48;;;;;;;0.70;0.40;;;;;;;9.06;100.00;99652.59;5012517;28;20218;-82
2023/12/26 05:16:16;;;;;;;1.03;0.30;;;;;;;9.02;100.00;99654.63;5012639;28;20679;-81
2023/12/26 05:18:43;;;;;;;1.13;0.50;;;;;;;9.03;100.00;99660.78;5012486;28;20238;-80
2023/12/26 05:21:17;;;;;;;2.23;0.40;;;;;;;9.02;100.00;99649.31;5011966;28;20236;-81
2023/12/26 05:23:44;;;;;;;0.77;0.40;;;;;;;9.05;100.00;99651.75;5011617;28;20316;-82
2023/12/26 05:26:10;;;;;;;0.77;0.30;;;;;;;9.03;100.00;99664.28;5012018;28;20207;-81
2023/12/26 05:28:37;;;;;;;0.77;0.20;;;;;;;9.04;100.00;99660.69;5011559;28;20225;-81
2023/12/26 05:31:04;;;;;;;1.27;0.50;;;;;;;9.03;100.00;99664.28;5011516;28;20203;-80
2023/12/26 05:33:32;;;;;;;0.97;0.40;;;;;;;9.03;100.00;99661.63;5011866;28;20231;-82
2023/12/26 05:36:00;;;;;;;0.73;0.30;;;;;;;9.02;100.00;99670.56;5012817;28;20234;-82
2023/12/26 05:38:27;;;;;;;0.37;0.33;;;;;;;9.02;100.00;99673.22;5011990;28;20207;-81
2023/12/26 05:40:53;;;;;;;0.83;0.50;;;;;;;9.01;100.00;99679.50;5010384;28;20230;-82
2023/12/26 05:43:20;;;;;;;1.77;0.47;;;;;;;9.02;100.00;99693.63;5011792;28;20226;-80
2023/12/26 05:45:47;;;;;;;0.93;0.20;;;;;;;9.02;100.00;99702.44;5011991;28;20293;-80
2023/12/26 05:48:13;;;;;;;1.10;0.40;;;;;;;9.04;100.00;99702.31;5011864;28;20318;-81
2023/12/26 05:50:41;;;;;;;1.50;0.60;;;;;;;9.06;100.00;99692.44;5011603;28;20203;-80
2023/12/26 05:53:08;;;;;;;3.17;0.53;;;;;;;9.04;100.00;99695.22;5011018;28;20227;-81
2023/12/26 05:55:35;;;;;;;2.33;0.60;;;;;;;9.04;100.00;99700.53;5012066;28;20229;-81
2023/12/26 05:58:01;;;;;;;2.93;0.40;;;;;;;9.05;100.00;99710.19;5012110;28;20722;-81
2023/12/26 06:00:28;;;;;;;1.27;0.43;;;;;;;9.04;100.00;99716.47;5011680;28;20301;-81
2023/12/26 06:02:54;;;;;;;2.13;0.57;;;;;;;9.04;100.00;99721.78;5011434;28;20230;-80
2023/12/26 06:05:21;;;;;;;1.57;0.77;;;;;;;9.03;100.00;99722.72;5011637;28;20302;-81
2023/12/26 06:07:49;;;;;;;2.87;0.70;;;;;;;9.05;100.00;99730.59;5011084;28;20217;-79
2023/12/26 06:10:15;;;;;;;0.57;0.57;;;;;;;9.05;100.00;99727.94;5011050;28;20329;-80
2023/12/26 06:12:42;;;;;;;1.37;0.50;;;;;;;9.06;100.00;99740.25;5011059;28;20758;-80
2023/12/26 06:15:09;;;;;;;2.53;0.63;;;;;;;9.07;100.00;99754.38;5010982;28;20775;-80
2023/12/26 06:17:36;;;;;;;1.87;0.50;;;;;;;9.08;100.00;99748.97;5011624;28;20302;-80
2023/12/26 06:20:04;;;;;;;3.07;0.40;;;;;;;9.10;100.00;99770.09;5011745;28;20210;-80
2023/12/26 06:22:30;;;;;;;2.23;0.40;;;;;;;9.09;100.00;99777.22;5011140;28;20230;-80
2023/12/26 06:24:58;;;;;;;1.00;0.40;;;;;;;9.09;100.00;99771.91;5012085;28;20231;-80
2023/12/26 06:27:25;;;;;;;1.73;0.40;;;;;;;9.09;100.00;99777.22;5012625;28;20215;-82
2023/12/26 06:29:51;;;;;;;3.10;0.40;;;;;;;9.10;100.00;99772.75;5012831;28;20663;-81
2023/12/26 06:32:18;;;;;;;0.97;0.50;;;;;;;9.12;100.00;99778.81;5012804;28;20254;-79
2023/12/26 06:34:45;;;;;;;2.00;0.40;;;;;;;9.11;100.00;99782.44;5012074;28;20301;-79
2023/12/26 06:37:11;;;;;;;2.30;0.50;;;;;;;9.11;100.00;99785.09;5013002;28;20577;-81
2023/12/26 06:39:39;;;;;;;2.53;0.50;;;;;;;9.10;100.00;99781.59;5012998;28;20561;-82
2023/12/26 06:42:07;;;;;;;4.30;0.90;;;;;;;9.11;100.00;99779.78;5012143;28;20250;-81
2023/12/26 06:44:33;;;;;;;0.67;0.50;;;;;;;9.09;100.00;99790.50;5012491;28;20289;-81
2023/12/26 06:47:00;;;;;;;2.80;0.57;;;;;;;9.08;100.00;99794.13;5012493;28;20214;-80
2023/12/26 06:49:27;;;;;;;1.00;0.40;;;;;;;9.08;100.00;99796.78;5011937;28;20246;-81
2023/12/26 06:51:53;;;;;;;2.00;0.50;;;;;;;9.07;100.00;99789.75;5011854;28;20227;-82
2023/12/26 06:54:20;;;;;;;2.10;0.50;;;;;;;9.05;100.00;99797.84;5015441;28;20785;-79
2023/12/26 06:56:49;;;;;;;1.90;0.90;;;;;;;9.04;100.00;99808.56;5016052;28;20247;-80
2023/12/26 06:59:17;;;;;;;2.43;0.70;;;;;;;9.03;100.00;99821.00;5016128;28;20198;-81
2023/12/26 07:01:46;;;;;;;2.80;0.70;;;;;;;9.04;100.00;99827.16;5015648;28;20230;-82
2023/12/26 07:04:13;;;;;;;2.60;0.60;;;;;;;9.00;100.00;99847.75;5015558;28;20206;-82
2023/12/26 07:06:40;;;;;;;0.97;0.50;;;;;;;9.02;100.00;99858.28;5015409;28;20663;-80
2023/12/26 07:09:06;;;;;;;2.90;0.70;;;;;;;9.03;100.00;99868.81;5015803;28;20303;-79
2023/12/26 07:11:33;;;;;;;1.97;0.50;;;;;;;9.03;100.00;99871.47;5014943;28;20642;-81
2023/12/26 07:13:58;;;;;;;2.77;0.70;;;;;;;9.01;100.00;99868.06;5014899;28;20251;-81
2023/12/26 07:16:26;;;;;;;1.33;0.40;;;;;;;8.99;99.99;99879.75;5014910;28;20812;-80
2023/12/26 07:18:53;;;;;;;0.93;0.30;;;;;;;8.90;95.85;99875.94;5015926;28;20263;-82
2023/12/26 07:21:20;;;;;;;4.27;1.10;;;;;;;8.79;91.80;99875.78;5015645;28;20227;-81
2023/12/26 07:23:47;;;;;;;4.40;0.70;;;;;;;8.72;89.51;99879.00;5012445;28;20297;-82
2023/12/26 07:26:14;;;;;;;2.77;0.80;;;;;;;8.62;86.90;99892.00;5012530;28;20213;-82
2023/12/26 07:28:40;;;;;;;8.97;1.43;;;;;;;8.53;87.09;99903.25;5013003;28;20639;-79
2023/12/26 07:31:07;;;;;;;4.17;0.73;;;;;;;8.46;86.70;99909.91;5012539;28;20203;-80
2023/12/26 07:33:35;;;;;;;4.90;0.90;;;;;;;8.46;84.48;99920.53;5012207;28;20230;-79
2023/12/26 07:36:01;;;;;;;1.60;0.70;;;;;;;8.40;84.68;99928.91;5012000;28;20251;-80
2023/12/26 07:38:29;;;;;;;3.87;0.70;;;;;;;8.34;85.00;99938.97;5014453;28;20213;-82
2023/12/26 07:40:55;;;;;;;4.50;0.80;;;;;;;8.29;84.92;99950.78;5018829;28;20303;-81
2023/12/26 07:43:22;;;;;;;4.50;1.00;;;;;;;8.27;85.05;99964.16;5018135;28;20218;-81
2023/12/26 07:45:49;;;;;;;3.43;1.10;;;;;;;8.23;85.69;99970.63;5018704;28;20294;-81
2023/12/26 07:48:16;;;;;;;2.93;1.10;;;;;;;8.21;85.51;99977.84;5018791;28;20224;-81
2023/12/26 07:50:44;;;;;;;4.10;1.53;;;;;;;8.18;86.05;99975.38;5016934;28;20274;-83
2023/12/26 07:53:11;;;;;;;5.63;0.90;;;;;;;8.15;86.58;99977.38;5014599;28;20314;-81
2023/12/26 07:55:38;;;;;;;3.67;0.70;;;;;;;8.10;86.91;99977.66;5017229;28;20215;-82
2023/12/26 07:58:05;;;;;;;6.00;1.23;;;;;;;8.08;86.32;99976.88;5015858;28;20203;-81
2023/12/26 08:00:31;;;;;;;3.50;0.80;;;;;;;8.07;86.33;99987.59;5014004;28;20730;-82
2023/12/26 08:02:58;;;;;;;3.67;0.90;;;;;;;8.05;85.57;99989.53;5013776;28;20230;-81
2023/12/26 08:05:25;;;;;;;3.50;1.00;;;;;;;8.02;85.63;99988.75;5013332;28;20290;-81
2023/12/26 08:07:52;;;;;;;3.63;1.10;;;;;;;8.01;86.37;100000.31;5014711;28;20267;-79
2023/12/26 08:10:19;;;;;;;4.73;1.50;;;;;;;8.02;86.70;100006.47;5013754;28;20290;-82
2023/12/26 08:12:46;;;;;;;3.80;0.70;;;;;;;8.00;86.49;100011.03;5013370;28;20227;-81
2023/12/26 08:15:13;;;;;;;4.00;1.37;;;;;;;7.99;86.93;100017.25;5013395;28;20290;-81
2023/12/26 08:17:40;;;;;;;4.07;0.77;;;;;;;7.99;86.73;100025.22;5013167;28;20203;-81
2023/12/26 08:20:08;;;;;;;3.73;1.00;;;;;;;7.98;87.25;100028.81;5013726;28;20297;-81
2023/12/26 08:22:35;;;;;;;3.27;0.70;;;;;;;7.95;87.83;100043.13;5013520;28;20231;-81
2023/12/26 08:25:03;;;;;;;4.13;1.00;;;;;;;7.93;87.53;100044.16;5013248;28;20202;-81
2023/12/26 08:27:30;;;;;;;2.13;0.50;;;;;;;7.93;88.40;100044.16;5013268;28;20301;-80
2023/12/26 08:29:56;;;;;;;4.53;1.00;;;;;;;7.93;88.25;100057.41;5013699;28;20217;-80
2023/12/26 08:32:23;;;;;;;3.57;0.80;;;;;;;7.93;88.72;100047.66;5013404;28;20219;-82
2023/12/26 08:34:49;;;;;;;3.37;0.90;;;;;;;7.92;88.75;100045.94;5013418;28;20306;-81
2023/12/26 08:37:16;;;;;;;3.63;0.80;;;;;;;7.92;88.84;100055.69;5012967;28;20217;-81
2023/12/26 08:39:43;;;;;;;2.87;0.97;;;;;;;7.90;88.71;100054.94;5013687;28;20217;-80
2023/12/26 08:42:11;;;;;;;5.10;1.07;;;;;;;7.90;89.42;100054.94;5013373;28;20646;-80
2023/12/26 08:44:37;;;;;;;5.33;1.10;;;;;;;7.92;89.42;100067.16;5012739;28;20231;-80
2023/12/26 08:47:04;;;;;;;3.90;1.10;;;;;;;7.96;89.96;100071.34;5012659;28;20297;-80
2023/12/26 08:49:31;;;;;;;6.13;1.00;;;;;;;7.97;90.34;100077.50;5013002;28;20779;-79
2023/12/26 08:51:58;;;;;;;3.63;1.03;;;;;;;7.97;90.15;100080.16;5012628;28;20651;-80
2023/12/26 08:54:24;;;;;;;1.97;0.70;;;;;;;8.00;90.20;100079.97;5013253;28;20195;-80
2023/12/26 08:56:51;;;;;;;3.80;0.80;;;;;;;8.05;89.82;100075.22;5012292;28;20568;-80
2023/12/26 08:59:20;;;;;;;3.57;1.20;;;;;;;8.05;90.41;100091.16;5012119;28;20294;-79
2023/12/26 09:01:48;;;;;;;2.90;0.90;;;;;;;8.11;90.34;100088.09;5012873;28;20227;-81
2023/12/26 09:04:18;;;;;;;3.43;1.33;;;;;;;8.19;92.07;100092.94;5012306;28;20218;-81
2023/12/26 09:06:45;;;;;;;3.77;1.17;;;;;;;8.24;93.19;100089.03;5012297;28;20195;-81
2023/12/26 09:09:12;;;;;;;4.60;0.80;;;;;;;8.30;93.31;100098.41;5012241;28;20214;-81
2023/12/26 09:11:39;;;;;;;3.33;1.10;;;;;;;8.35;94.12;100099.88;5012336;28;20219;-81
2023/12/26 09:14:06;;;;;;;4.10;1.20;;;;;;;8.42;94.25;100118.06;5011972;28;20270;-81
2023/12/26 09:16:34;;;;;;;4.23;0.90;;;;;;;8.45;93.71;100123.16;5011599;28;20202;-80
2023/12/26 09:19:00;;;;;;;2.37;0.70;;;;;;;8.54;92.67;100127.91;5011422;28;20207;-81
2023/12/26 09:21:27;;;;;;;5.83;1.20;;;;;;;8.53;92.87;100140.31;5012537;28;20229;-79
2023/12/26 09:23:53;;;;;;;3.90;0.97;;;;;;;8.53;91.98;100142.13;5012711;28;20234;-82
2023/12/26 09:26:21;;;;;;;5.70;0.77;;;;;;;8.51;88.92;100138.69;5011824;28;20207;-80
2023/12/26 09:28:48;;;;;;;1.57;0.50;;;;;;;8.48;87.48;100142.41;5014003;28;20580;-83
2023/12/26 09:31:14;;;;;;;2.27;1.07;;;;;;;8.46;87.23;100154.91;5013486;28;20238;-80
2023/12/26 09:33:51;;;;;;;3.03;1.27;;;;;;;8.45;85.56;100168.28;5012532;28;20233;-80
2023/12/26 09:36:18;;;;;;;3.87;1.30;;;;;;;8.44;83.83;100169.22;5013005;28;20597;-81
2023/12/26 09:38:44;;;;;;;5.50;1.57;;;;;;;8.44;84.23;100162.09;5012662;28;20291;-80
2023/12/26 09:41:13;;;;;;;2.43;1.00;;;;;;;8.40;83.73;100159.75;5011626;28;20301;-79
2023/12/26 09:43:40;;;;;;;8.00;1.67;;;;;;;8.37;84.42;100160.81;5011684;28;20314;-80
2023/12/26 09:46:07;;;;;;;4.10;1.00;;;;;;;8.40;84.57;100165.94;5012275;28;20637;-80
2023/12/26 09:48:34;;;;;;;2.60;1.00;;;;;;;8.45;85.08;100168.28;5012265;28;20207;-80
2023/12/26 09:51:04;;;;;;;4.77;0.83;;;;;;;8.46;85.60;100165.53;5013380;28;20218;-82
2023/12/26 09:53:34;;;;;;;4.80;0.83;;;;;;;8.51;86.15;100178.50;5012519;28;20231;-81
2023/12/26 09:56:01;;;;;;;3.50;1.00;;;;;;;8.54;86.59;100186.28;5011840;28;20301;-80
2023/12/26 09:58:29;;;;;;;2.67;0.90;;;;;;;8.57;85.83;100179.00;5011524;28;20199;-81
2023/12/26 10:00:56;;;;;;;2.67;1.00;;;;;;;8.62;85.84;100187.50;5011784;28;20464;-82
2023/12/26 10:03:24;;;;;;;2.93;1.57;;;;;;;8.64;85.42;100182.09;5011656;28;20321;-81
2023/12/26 10:05:57;;;;;;;2.30;0.80;;;;;;;8.64;85.26;100190.06;5000687;28;20294;-80
2023/12/26 10:08:27;;;;;;;3.50;1.33;;;;;;;8.67;85.52;100189.88;4992209;28;20223;-81
2023/12/26 10:10:55;;;;;;;4.27;1.30;;;;;;;8.66;86.49;100193.47;5008639;28;20666;-82
2023/12/26 10:13:22;;;;;;;2.30;1.27;;;;;;;8.67;86.33;100201.34;5006421;28;20314;-81
2023/12/26 10:15:48;;;;;;;1.83;0.80;;;;;;;8.68;85.99;100208.38;4991979;28;20673;-81
2023/12/26 10:18:15;;;;;;;4.87;0.80;;;;;;;8.67;85.36;100211.97;4991668;28;20284;-81
2023/12/26 10:20:41;;;;;;;4.13;1.00;;;;;;;8.67;86.07;100208.47;4991883;28;20272;-80
2023/12/26 10:23:08;;;;;;;3.07;1.33;;;;;;;8.66;85.71;100220.03;4991923;28;20227;-79
2023/12/26 10:25:36;;;;;;;2.60;0.90;;;;;;;8.66;85.89;100228.84;4992394;28;20214;-81
2023/12/26 10:28:03;;;;;;;5.20;0.93;;;;;;;8.66;85.65;100222.69;4994062;28;20389;-82
2023/12/26 10:30:30;;;;;;;4.10;1.00;;;;;;;8.67;84.82;100229.69;4995799;28;20748;-80
2023/12/26 10:32:59;;;;;;;4.07;1.20;;;;;;;8.67;85.50;100235.00;4996929;28;20772;-80
2023/12/26 10:35:27;;;;;;;4.30;1.17;;;;;;;8.66;85.37;100234.16;4995344;28;20238;-80
2023/12/26 10:37:54;;;;;;;5.17;0.90;;;;;;;8.65;84.60;100239.56;4994898;28;20207;-82
2023/12/26 10:40:21;;;;;;;3.10;0.87;;;;;;;8.66;83.94;100249.22;4994805;28;20239;-80
2023/12/26 10:42:51;;;;;;;6.77;1.13;;;;;;;8.64;84.23;100246.66;4995697;28;20874;-82
2023/12/26 10:45:19;;;;;;;4.83;1.10;;;;;;;8.68;84.15;100236.72;5014811;28;20612;-83
2023/12/26 10:47:50;;;;;;;6.17;1.00;;;;;;;8.69;83.93;100238.44;5016155;28;20658;-82
2023/12/26 10:50:18;;;;;;;3.30;0.90;;;;;;;8.69;82.91;100249.03;5016001;28;20206;-83
2023/12/26 10:53:12;;;;;;;7.93;1.00;;;;;;;8.75;82.46;100247.81;5016323;28;20222;-82
2023/12/26 10:55:41;;;;;;;6.17;1.10;;;;;;;8.76;81.96;100250.38;5017145;28;20310;-82
2023/12/26 10:58:28;;;;;;;5.20;0.90;;;;;;;8.79;80.44;100258.13;5015996;28;20297;-81
2023/12/26 13:53:04;;;;;;;3.37;1.30;;;;;;;8.59;72.38;100409.84;4993037;28;20295;-83
2023/12/26 13:56:08;;;;;;;6.83;1.30;;;;;;;8.58;72.79;100411.63;4992520;28;20326;-83
2023/12/26 13:59:12;;;;;;;4.17;1.83;;;;;;;8.63;73.13;100406.03;4993441;28;20211;-83
2023/12/26 14:02:16;;;;;;;5.43;1.47;;;;;;;8.62;72.64;100404.31;4992198;28;20207;-83
2023/12/26 14:05:20;;;;;;;4.57;1.33;;;;;;;8.63;72.57;100408.69;5014291;28;20245;-84
2023/12/26 14:08:24;;;;;;;7.43;1.93;;;;;;;8.66;73.79;100416.47;5014440;28;20249;-82
2023/12/26 14:11:28;;;;;;;5.43;1.00;;;;;;;8.65;73.80;100428.91;5015632;28;20292;-82
2023/12/26 14:14:33;;;;;;;6.47;1.37;;;;;;;8.67;73.78;100418.19;5016234;28;20308;-82
2023/12/26 14:17:41;;;;;;;5.03;1.20;;;;;;;8.66;74.33;100421.78;5015882;28;20237;-83
2023/12/26 14:20:45;;;;;;;12.50;4.73;;;;;;;8.70;73.77;100416.22;5015359;28;20209;-82
2023/12/26 14:23:51;;;;;;;8.03;3.77;;;;;;;8.70;74.61;100420.66;5014906;28;20226;-82
2023/12/26 14:26:55;;;;;;;8.77;3.60;;;;;;;8.67;74.46;100436.78;5015836;28;20215;-82
2023/12/26 14:29:59;;;;;;;5.20;1.70;;;;;;;8.67;74.62;100440.28;5015398;28;20214;-80
2023/12/26 14:33:04;;;;;;;5.07;1.80;;;;;;;8.69;73.74;100450.81;5015403;28;20280;-80